Latest Weather Observations for PORTABLE QFRL (Mt Fox)

IDQ60801

Issued at 6:12 pm EST Wednesday 24 April 2019 (issued every 10 minutes, with the page automatically refreshed every 10 minutes)

About weather observations | Map of weather stations | Latest weather observations for QLD | Other Formats
Station Details ID: 250076 Name: PORTABLE QFRL (MOUNT FOX) Lat: -18.83 Lon: 145.80 Height: 645.0 m
Data from the previous 72 hours. | See also: Recent months for locations in Queensland
Date/Time
EST
Temp
°C
App
Temp
°C
Dew
Point
°C
Rel
Hum
%
Delta-T
°C
Wind Press
QNH
hPa
Press
MSL
hPa
Rain since
9am
mm
Dir  Spd
km/h
Gust
km/h
Spd
kts
Gust
kts
24/06:00pm 20.9 23.1 19.5 92 0.9 SSE 7 9 4 5 - - 3.8
24/05:50pm 21.3 23.9 20.1 93 0.8 SE 6 7 3 4 - - 3.6
24/05:40pm 21.5 24.6 20.2 92 0.9 SE 4 6 2 3 - - 3.4
24/05:30pm 21.7 25.1 20.2 91 1.0 SE 2 4 1 2 - - 3.4
24/05:20pm 21.9 24.9 20.0 89 1.3 ESE 4 6 2 3 - - 3.2
24/05:10pm 22.2 25.7 20.4 89 1.2 ESE 2 4 1 2 - - 3.2
24/05:00pm 22.2 26.3 20.7 91 1.0 CALM 0 2 0 1 - - 3.2
24/04:50pm 22.1 26.1 20.6 91 1.0 CALM 0 0 0 0 - - 3.2
24/04:40pm 21.9 25.8 20.4 91 1.0 CALM 0 2 0 1 - - 3.2
24/04:30pm 21.8 25.3 20.4 92 0.9 E 2 6 1 3 - - 3.2
24/04:20pm 21.8 25.2 20.2 91 1.1 ENE 2 4 1 2 - - 3.2
24/04:10pm 22.0 24.7 20.2 89 1.2 E 6 9 3 5 - - 3.0
24/04:00pm 23.2 25.3 20.1 83 2.1 ESE 9 13 5 7 - - 2.4
24/03:50pm 24.9 28.6 20.8 78 2.8 ENE 2 6 1 3 - - 2.2
24/03:40pm 24.9 28.6 20.7 77 2.8 ESE 2 2 1 1 - - 2.2
24/03:30pm 24.7 28.1 20.1 75 3.1 SE 2 4 1 2 - - 2.2
24/03:20pm 24.3 28.0 20.8 81 2.3 NNE 2 4 1 2 - - 2.2
24/03:10pm 23.8 27.2 20.9 84 1.9 ENE 4 4 2 2 - - 2.2
24/03:00pm 23.6 27.5 21.2 86 1.6 NE 2 4 1 2 - - 2.2
24/02:50pm 23.5 27.4 21.1 86 1.6 ENE 2 6 1 3 - - 2.2
24/02:40pm 23.5 27.3 20.9 85 1.7 E 2 6 1 3 - - 2.2
24/02:30pm 23.4 26.9 20.4 83 2.0 S 2 6 1 3 - - 2.2
24/02:20pm 23.9 26.8 20.6 82 2.2 S 6 9 3 5 - - 2.2
24/02:10pm 24.9 28.4 20.4 76 3.0 NE 2 4 1 2 - - 2.0
24/02:00pm 24.7 28.5 21.0 80 2.5 ENE 2 6 1 3 - - 2.0
24/01:50pm 25.0 28.5 20.4 75 3.1 ENE 2 6 1 3 - - 2.0
24/01:40pm 24.7 28.4 20.8 79 2.6 NE 2 4 1 2 - - 2.0
24/01:30pm 24.0 27.6 20.6 81 2.3 NE 2 6 1 3 - - 2.0
24/01:20pm 23.7 27.3 21.2 86 1.7 ENE 4 6 2 3 - - 2.0
24/01:10pm 23.7 27.8 21.6 88 1.4 E 2 6 1 3 - - 2.0
24/01:00pm 23.5 27.3 21.0 86 1.7 ENE 2 4 1 2 - - 2.0
24/12:50pm 23.3 26.7 21.0 87 1.5 ESE 4 7 2 4 - - 1.8
24/12:40pm 23.5 26.8 20.8 85 1.8 ENE 4 7 2 4 - - 1.0
24/12:30pm 24.2 27.6 21.0 82 2.2 NE 4 6 2 3 - - 0.2
24/12:20pm 24.7 27.8 19.4 72 3.5 S 2 4 1 2 - - 0.0
24/12:10pm 25.0 27.5 19.8 73 3.4 SSE 6 9 3 5 - - 0.0
24/12:00pm 25.9 28.1 19.2 66 4.4 SW 6 11 3 6 - - 0.0
24/11:50am 25.9 28.6 19.4 67 4.3 SSE 4 6 2 3 - - 0.0
24/11:40am 25.3 27.7 19.7 71 3.7 SSE 6 7 3 4 - - 0.0
24/11:30am 25.8 28.1 19.4 67 4.2 SSW 6 9 3 5 - - 0.0
24/11:20am 25.8 28.2 19.7 69 4.0 S 6 9 3 5 - - 0.0
24/11:10am 25.4 28.1 19.5 70 3.9 S 4 7 2 4 - - 0.0
24/11:00am 24.5 27.3 19.6 74 3.2 SW 4 9 2 5 - - 0.0
24/10:50am 24.2 27.0 19.6 75 3.0 S 4 7 2 4 - - 0.0
24/10:40am 24.5 27.3 19.7 74 3.2 S 4 7 2 4 - - 0.0
24/10:30am 24.8 27.5 19.4 72 3.6 SSW 4 7 2 4 - - 0.0
24/10:20am 24.0 26.9 19.8 77 2.8 SSW 4 9 2 5 - - 0.0
24/10:00am 23.4 25.8 19.7 80 2.4 SSW 6 7 3 4 - - 0.0
24/09:50am 23.5 26.1 19.3 77 2.8 S 4 6 2 3 - - 0.0
24/09:40am 23.4 25.5 19.0 76 2.9 SSE 6 7 3 4 - - 0.0
24/09:30am 23.9 26.4 19.1 74 3.1 SSW 4 9 2 5 - - 0.0
24/09:20am 23.8 26.6 19.6 77 2.8 SSW 4 7 2 4 - - 0.0
24/09:10am 23.8 27.0 19.7 78 2.7 S 2 6 1 3 - - 0.0
24/09:00am 23.3 26.4 19.5 79 2.5 SE 2 6 1 3 - - 0.0
24/08:50am 22.0 24.7 19.4 85 1.7 SSW 4 6 2 3 - - 0.0
24/08:40am 21.8 24.9 19.4 86 1.6 SSW 2 4 1 2 - - 0.0
24/08:30am 21.1 24.2 19.4 90 1.1 SSE 2 4 1 2 - - 0.0
24/08:20am 20.5 23.1 19.2 92 0.8 S 4 6 2 3 - - 0.0
24/08:10am 20.4 23.3 19.1 92 0.8 S 2 7 1 4 - - 0.0
24/08:00am 20.2 22.7 19.1 93 0.7 SSW 4 6 2 3 - - 0.0
24/07:50am 19.9 22.8 19.0 95 0.6 SSW 2 6 1 3 - - 0.0
24/07:40am 19.6 22.0 18.9 96 0.5 SSE 4 6 2 3 - - 0.0
24/07:30am 19.5 21.9 18.8 96 0.4 SE 4 6 2 3 - - 0.0
24/07:20am 19.2 21.9 18.6 96 0.4 SSE 2 6 1 3 - - 0.0
24/07:10am 18.9 21.8 18.2 96 0.4 CALM 0 2 0 1 - - 0.0
24/07:00am 18.5 21.2 17.8 96 0.4 CALM 0 2 0 1 - - 0.0
24/06:50am 18.5 21.2 17.8 96 0.4 CALM 0 0 0 0 - - 0.0
24/06:40am 18.6 21.3 17.8 95 0.5 CALM 0 0 0 0 - - 0.0
24/06:30am 18.8 21.6 17.9 94 0.6 CALM 0 0 0 0 - - 0.0
24/06:20am 19.0 21.9 18.1 94 0.6 CALM 0 2 0 1 - - 0.0
24/06:10am 19.2 22.1 18.2 94 0.6 CALM 0 0 0 0 - - 0.0
24/06:00am 19.2 22.1 18.3 94 0.6 CALM 0 0 0 0 - - 0.0
24/05:50am 19.3 22.2 18.3 94 0.6 CALM 0 0 0 0 - - 0.0
24/05:40am 19.4 22.4 18.4 94 0.6 CALM 0 2 0 1 - - 0.0
24/05:30am 19.6 22.6 18.4 93 0.8 CALM 0 0 0 0 - - 0.0
24/05:20am 19.7 22.7 18.5 93 0.8 CALM 0 0 0 0 - - 0.0
24/05:10am 19.7 22.7 18.5 93 0.8 CALM 0 0 0 0 - - 0.0
24/05:00am 19.6 22.5 18.3 92 0.8 CALM 0 2 0 1 - - 0.0
24/04:50am 19.6 22.2 18.3 92 0.8 S 2 2 1 1 - - 0.0
24/04:40am 19.6 22.2 18.4 93 0.8 SSE 2 4 1 2 - - 0.0
24/04:30am 19.6 21.8 18.4 93 0.8 S 4 6 2 3 - - 0.0
24/04:20am 19.4 22.5 18.7 96 0.4 CALM 0 2 0 1 - - 0.0
24/04:10am 19.3 22.0 18.6 96 0.4 SE 2 2 1 1 - - 0.0
24/04:00am 19.2 21.9 18.6 96 0.4 SE 2 4 1 2 - - 0.0
24/03:50am 19.1 21.7 18.5 96 0.4 ESE 2 6 1 3 - - 0.0
24/03:40am 19.0 22.0 18.4 96 0.4 CALM 0 0 0 0 - - 0.0
24/03:30am 19.0 21.9 18.3 96 0.4 CALM 0 0 0 0 - - 0.0
24/03:20am 19.1 22.0 18.3 95 0.5 CALM 0 0 0 0 - - 0.0
24/03:10am 19.4 22.4 18.5 94 0.6 CALM 0 0 0 0 - - 0.0
24/03:00am 19.6 22.3 18.7 94 0.6 S 2 4 1 2 - - 0.0
24/02:50am 19.7 22.9 18.9 95 0.5 CALM 0 2 0 1 - - 0.0
24/02:40am 19.7 22.5 18.9 95 0.5 SSE 2 4 1 2 - - 0.0
24/02:30am 19.7 22.5 18.9 95 0.5 SE 2 4 1 2 - - 0.0
24/02:20am 19.6 22.4 18.9 96 0.5 SSE 2 4 1 2 - - 0.0
24/02:10am 19.6 22.4 18.8 95 0.5 ESE 2 4 1 2 - - 0.0
24/02:00am 19.6 22.4 18.9 96 0.5 SE 2 4 1 2 - - 0.0
24/01:50am 19.6 22.4 18.9 96 0.5 ESE 2 6 1 3 - - 0.0
24/01:40am 19.6 22.8 18.8 95 0.5 CALM 0 0 0 0 - - 0.0
24/01:30am 19.6 22.3 18.6 94 0.6 ENE 2 4 1 2 - - 0.0
24/01:20am 19.8 22.9 18.7 93 0.7 CALM 0 2 0 1 - - 0.0
24/01:10am 20.0 23.2 18.9 93 0.7 CALM 0 2 0 1 - - 0.0
24/01:00am 20.2 23.1 19.0 93 0.8 ENE 2 4 1 2 - - 0.0
24/12:50am 20.3 23.2 19.1 93 0.8 E 2 6 1 3 - - 0.0
24/12:40am 20.4 22.9 19.1 92 0.8 ENE 4 7 2 4 - - 0.0
24/12:30am 20.4 22.5 19.0 92 0.9 E 6 9 3 5 - - 0.0
24/12:20am 20.4 22.9 19.1 92 0.8 ENE 4 6 2 3 - - 0.0
24/12:10am 20.3 22.8 19.1 93 0.8 ENE 4 6 2 3 - - 0.0
24/12:00am 20.3 22.8 19.1 93 0.8 E 4 7 2 4 - - 0.0
 
Date/Time
EST
Temp
°C
App
Temp
°C
Dew
Point
°C
Rel
Hum
%
Delta-T
°C
Wind Press
QNH
hPa
Press
MSL
hPa
Rain since
9am
mm
Dir  Spd
km/h
Gust
km/h
Spd
kts
Gust
kts
23/11:50pm 20.3 23.3 19.2 93 0.7 ENE 2 6 1 3 - - 0.0
23/11:40pm 20.3 23.3 19.2 93 0.7 ENE 2 6 1 3 - - 0.0
23/11:30pm 20.2 22.8 19.2 94 0.6 ENE 4 7 2 4 - - 0.0
23/11:20pm 20.1 23.0 19.1 94 0.6 ENE 2 4 1 2 - - 0.0
23/11:10pm 20.0 22.9 19.1 95 0.6 E 2 6 1 3 - - 0.0
23/11:00pm 19.9 22.8 19.0 95 0.6 NE 2 4 1 2 - - 0.0
23/10:50pm 20.0 22.5 19.1 95 0.6 NE 4 6 2 3 - - 0.0
23/10:40pm 19.8 22.7 19.1 96 0.5 NE 2 6 1 3 - - 0.0
23/10:30pm 19.6 22.4 18.8 95 0.5 E 2 6 1 3 - - 0.0
23/10:20pm 19.6 22.4 18.8 95 0.5 E 2 2 1 1 - - 0.0
23/10:10pm 19.6 22.7 18.7 94 0.6 CALM 0 2 0 1 - - 0.0
23/10:00pm 19.6 22.3 18.7 94 0.6 NE 2 4 1 2 - - 0.0
23/09:50pm 19.6 22.4 18.8 95 0.5 NE 2 4 1 2 - - 0.0
23/09:40pm 19.7 22.4 18.7 94 0.6 NE 2 4 1 2 - - 0.0
23/09:30pm 19.7 22.4 18.7 94 0.6 NE 2 6 1 3 - - 0.0
23/09:20pm 19.7 22.1 18.7 94 0.6 NE 4 6 2 3 - - 0.0
23/09:10pm 19.7 22.4 18.7 94 0.6 NE 2 6 1 3 - - 0.0
23/09:00pm 19.8 22.2 18.8 94 0.6 NE 4 6 2 3 - - 0.0
23/08:50pm 19.9 22.3 18.9 94 0.6 NE 4 6 2 3 - - 0.0
23/08:40pm 19.8 22.2 18.9 94 0.6 NE 4 7 2 4 - - 0.0
23/08:30pm 19.9 22.8 19.0 95 0.6 NE 2 6 1 3 - - 0.0
23/08:20pm 19.9 22.8 19.0 95 0.6 NE 2 4 1 2 - - 0.0
23/08:10pm 19.9 22.7 18.9 94 0.6 NE 2 4 1 2 - - 0.0
23/08:00pm 20.0 22.9 19.1 95 0.6 NE 2 4 1 2 - - 0.0
23/07:50pm 20.1 23.1 19.2 95 0.6 NE 2 4 1 2 - - 0.0
23/07:40pm 20.2 23.2 19.2 94 0.6 NE 2 6 1 3 - - 0.0
23/07:30pm 20.3 23.3 19.3 94 0.6 NE 2 6 1 3 - - 0.0
23/07:20pm 20.2 22.8 19.3 95 0.6 NE 4 7 2 4 - - 0.0
23/07:10pm 20.1 23.1 19.2 95 0.6 NE 2 6 1 3 - - 0.0
23/07:00pm 20.1 23.0 19.1 94 0.6 NE 2 4 1 2 - - 0.0
23/06:50pm 20.2 23.1 19.1 93 0.7 NE 2 6 1 3 - - 0.0
23/06:40pm 20.3 23.2 19.1 93 0.8 NE 2 4 1 2 - - 0.0
23/06:30pm 20.5 23.4 19.1 92 0.9 NE 2 6 1 3 - - 0.0
23/06:20pm 20.7 23.6 19.1 90 1.0 NNE 2 4 1 2 - - 0.0
23/06:10pm 20.9 23.8 19.1 89 1.2 NE 2 6 1 3 - - 0.0
23/06:00pm 21.1 24.1 19.2 89 1.2 NE 2 4 1 2 - - 0.0
23/05:50pm 21.3 23.5 19.2 88 1.4 NE 6 7 3 4 - - 0.0
23/05:40pm 21.5 23.7 19.2 87 1.5 NNE 6 7 3 4 - - 0.0
23/05:30pm 21.7 23.9 19.3 86 1.6 NE 6 7 3 4 - - 0.0
23/05:20pm 22.0 24.2 19.3 85 1.8 NE 6 9 3 5 - - 0.0
23/05:10pm 22.2 24.4 19.1 82 2.0 NE 6 11 3 6 - - 0.0
23/05:00pm 22.3 24.2 18.9 81 2.2 NE 7 9 4 5 - - 0.0
23/04:50pm 22.5 24.5 19.1 81 2.2 NE 7 13 4 7 - - 0.0
23/04:40pm 22.8 24.8 19.1 79 2.4 NE 7 13 4 7 - - 0.0
23/04:30pm 23.1 25.3 19.1 78 2.6 ENE 6 11 3 6 - - 0.0
23/04:20pm 23.2 24.9 19.4 79 2.5 NE 9 15 5 8 - - 0.0
23/04:10pm 23.5 25.2 19.4 78 2.7 ENE 9 13 5 7 - - 0.0
23/04:00pm 23.8 25.5 19.3 76 2.9 ENE 9 15 5 8 - - 0.0
23/03:50pm 23.7 25.9 19.5 77 2.8 NE 7 13 4 7 - - 0.0
23/03:40pm 24.0 26.1 20.2 79 2.5 NE 9 13 5 7 - - 0.0
23/03:30pm 24.4 27.1 20.6 79 2.5 NE 7 11 4 6 - - 0.0
23/03:20pm 24.5 27.0 20.2 77 2.9 NE 7 11 4 6 - - 0.0
23/03:10pm 24.5 26.9 20.0 76 3.0 NE 7 11 4 6 - - 0.0
23/03:00pm 24.5 26.5 19.9 75 3.0 NE 9 11 5 6 - - 0.0
23/02:50pm 25.2 27.2 20.0 73 3.5 NE 9 13 5 7 - - 0.0
23/02:40pm 25.3 27.6 19.9 72 3.6 NE 7 13 4 7 - - 0.0
23/02:30pm 25.0 27.3 19.9 73 3.4 ENE 7 11 4 6 - - 0.0
23/02:20pm 24.8 26.6 19.5 72 3.5 NE 9 15 5 8 - - 0.0
23/02:10pm 25.0 26.8 19.6 72 3.6 NNE 9 11 5 6 - - 0.0
23/02:00pm 25.0 26.7 19.4 71 3.7 NE 9 15 5 8 - - 0.0
23/01:50pm 24.8 26.9 19.4 72 3.6 ENE 7 11 4 6 - - 0.0
23/01:40pm 24.8 26.7 19.8 74 3.3 NE 9 11 5 6 - - 0.0
23/01:30pm 25.0 27.2 19.7 72 3.5 NE 7 9 4 5 - - 0.0
23/01:20pm 24.6 26.9 19.9 75 3.1 NE 7 11 4 6 - - 0.0
23/01:10pm 24.9 27.1 20.4 76 3.0 NE 9 13 5 7 - - 0.0
23/01:00pm 25.5 27.6 20.2 72 3.5 NE 9 13 5 7 - - 0.0
23/12:50pm 25.7 27.6 19.8 70 3.9 NE 9 13 5 7 - - 0.0
23/12:40pm 25.5 27.9 20.1 72 3.6 NE 7 11 4 6 - - 0.0
23/12:30pm 25.3 27.7 19.6 70 3.8 NE 6 11 3 6 - - 0.0
23/12:20pm 24.8 27.2 20.0 74 3.2 NE 7 9 4 5 - - 0.0
23/12:10pm 24.9 27.2 19.8 73 3.4 NNE 7 9 4 5 - - 0.0
23/12:00pm 25.0 27.2 19.6 72 3.6 NE 7 9 4 5 - - 0.0
23/11:50am 25.3 27.6 19.4 70 3.9 ENE 6 11 3 6 - - 0.0
23/11:40am 25.0 27.4 18.9 69 4.0 NNE 4 6 2 3 - - 0.0
23/11:30am 24.6 27.3 19.5 73 3.4 ENE 4 7 2 4 - - 0.0
23/11:20am 24.3 26.8 19.9 76 2.9 NNE 6 9 3 5 - - 0.0
23/11:10am 23.9 26.8 19.9 78 2.6 ENE 4 9 2 5 - - 0.0
23/11:00am 23.5 25.7 19.1 76 2.9 NNE 6 7 3 4 - - 0.0
23/10:50am 23.3 25.9 19.3 78 2.6 NE 4 7 2 4 - - 0.0
23/10:40am 23.5 26.2 18.7 74 3.1 SE 2 4 1 2 - - 0.0
23/10:30am 23.7 26.1 18.8 74 3.2 ENE 4 6 2 3 - - 0.0
23/10:20am 23.7 26.2 19.0 75 3.1 NNE 4 6 2 3 - - 0.0
23/10:10am 24.2 27.2 19.2 73 3.3 NNE 2 4 1 2 - - 0.0
23/10:00am 23.6 25.8 19.1 76 2.9 N 6 7 3 4 - - 0.0
23/09:50am 23.4 25.8 18.9 76 2.9 ENE 4 6 2 3 - - 0.0
23/09:40am 23.6 26.0 18.8 74 3.1 ENE 4 7 2 4 - - 0.0
23/09:30am 23.4 25.9 19.0 76 2.9 ENE 4 7 2 4 - - 0.0
23/09:20am 22.8 24.9 18.2 75 3.0 E 4 6 2 3 - - 0.0
23/09:10am 22.7 24.9 18.4 76 2.8 E 4 6 2 3 - - 0.0
23/09:00am 22.6 24.6 17.9 75 3.0 E 4 6 2 3 - - 0.0
23/08:50am 22.4 24.5 18.0 76 2.8 E 4 7 2 4 - - 0.0
23/08:40am 22.4 24.5 18.2 77 2.7 E 4 7 2 4 - - 0.0
23/08:30am 22.2 24.3 18.9 81 2.1 ESE 6 9 3 5 - - 0.0
23/08:20am 21.4 23.6 18.3 82 2.0 ESE 4 6 2 3 - - 0.0
23/08:10am 20.6 23.4 18.8 89 1.2 E 2 4 1 2 - - 0.0
23/08:00am 20.4 23.1 18.7 90 1.1 E 2 4 1 2 - - 0.0
23/07:50am 20.1 22.9 18.8 92 0.8 E 2 4 1 2 - - 0.0
23/07:40am 19.8 22.9 18.7 93 0.7 CALM 0 0 0 0 - - 0.0
23/07:30am 19.6 22.6 18.5 93 0.7 CALM 0 2 0 1 - - 0.0
23/07:20am 19.5 22.1 18.4 93 0.7 ESE 2 4 1 2 - - 0.0
23/07:10am 19.5 22.1 18.5 94 0.6 ESE 2 4 1 2 - - 0.0
23/07:00am 19.4 22.5 18.6 95 0.5 CALM 0 4 0 2 - - 0.0
23/06:50am 19.3 21.9 18.5 95 0.5 ESE 2 4 1 2 - - 0.0
23/06:40am 19.2 21.8 18.5 96 0.4 E 2 4 1 2 - - 0.0
23/06:30am 19.2 21.8 18.4 95 0.5 E 2 2 1 1 - - 0.0
23/06:20am 19.1 21.7 18.3 95 0.5 E 2 6 1 3 - - 0.0
23/06:10am 19.0 21.9 18.3 96 0.4 CALM 0 2 0 1 - - 0.0
23/06:00am 19.0 21.6 18.3 96 0.4 ESE 2 4 1 2 - - 0.0
23/05:50am 18.9 21.4 18.2 96 0.4 ESE 2 4 1 2 - - 0.0
23/05:40am 18.8 21.7 18.1 96 0.4 CALM 0 4 0 2 - - 0.0
23/05:30am 18.8 21.7 18.1 96 0.4 CALM 0 2 0 1 - - 0.0
23/05:20am 18.7 21.5 17.9 95 0.5 CALM 0 2 0 1 - - 0.0
23/05:10am 18.9 21.7 18.0 94 0.6 CALM 0 0 0 0 - - 0.0
23/05:00am 19.1 22.0 18.2 94 0.6 CALM 0 2 0 1 - - 0.0
23/04:50am 19.3 22.2 18.3 94 0.6 CALM 0 0 0 0 - - 0.0
23/04:40am 19.4 22.3 18.3 93 0.7 CALM 0 0 0 0 - - 0.0
23/04:30am 19.6 22.2 18.4 93 0.8 ESE 2 4 1 2 - - 0.0
23/04:20am 19.7 22.3 18.5 93 0.8 ENE 2 6 1 3 - - 0.0
23/04:10am 20.0 22.7 18.6 92 0.9 E 2 6 1 3 - - 0.0
23/04:00am 20.1 22.5 18.8 92 0.8 ESE 4 6 2 3 - - 0.0
23/03:50am 20.1 22.1 18.8 92 0.8 ENE 6 7 3 4 - - 0.0
23/03:40am 20.1 22.5 18.9 93 0.8 ENE 4 7 2 4 - - 0.0
23/03:30am 20.0 22.1 18.9 93 0.7 E 6 9 3 5 - - 0.0
23/03:20am 19.8 22.6 18.9 94 0.6 E 2 4 1 2 - - 0.0
23/03:10am 19.9 22.7 18.8 93 0.7 NE 2 4 1 2 - - 0.0
23/03:00am 20.0 22.4 18.9 93 0.7 ENE 4 9 2 5 - - 0.0
23/02:50am 20.2 22.3 19.0 93 0.8 ENE 6 7 3 4 - - 0.0
23/02:40am 20.3 22.5 19.1 93 0.8 ENE 6 9 3 5 - - 0.0
23/02:30am 20.3 22.9 19.2 93 0.7 NE 4 7 2 4 - - 0.0
23/02:20am 20.3 22.8 19.0 92 0.8 ENE 4 6 2 3 - - 0.0
23/02:10am 20.3 22.8 19.0 92 0.8 ENE 4 7 2 4 - - 0.0
23/02:00am 20.3 22.4 19.0 92 0.8 ENE 6 7 3 4 - - 0.0
23/01:50am 20.2 22.7 19.1 93 0.7 ENE 4 7 2 4 - - 0.0
23/01:40am 20.2 22.7 19.0 93 0.8 ENE 4 7 2 4 - - 0.0
23/01:30am 20.2 22.3 18.9 92 0.8 ENE 6 9 3 5 - - 0.0
23/01:20am 20.3 22.4 18.9 92 0.9 ENE 6 9 3 5 - - 0.0
23/01:10am 20.3 22.4 18.9 92 0.9 ENE 6 9 3 5 - - 0.0
23/01:00am 20.3 22.4 18.9 92 0.9 ENE 6 9 3 5 - - 0.0
23/12:50am 20.3 22.2 18.9 92 0.9 ENE 7 11 4 6 - - 0.0
23/12:40am 20.2 22.2 18.8 92 0.9 ENE 6 9 3 5 - - 0.0
23/12:30am 20.3 22.1 18.8 91 1.0 ENE 7 11 4 6 - - 0.0
23/12:20am 20.4 22.2 18.8 90 1.0 ENE 7 11 4 6 - - 0.0
23/12:10am 20.4 22.6 19.2 93 0.8 ENE 6 9 3 5 - - 0.0
23/12:00am 20.4 22.6 19.1 92 0.8 ENE 6 9 3 5 - - 0.0
 
Date/Time
EST
Temp
°C
App
Temp
°C
Dew
Point
°C
Rel
Hum
%
Delta-T
°C
Wind Press
QNH
hPa
Press
MSL
hPa
Rain since
9am
mm
Dir  Spd
km/h
Gust
km/h
Spd
kts
Gust
kts
22/11:50pm 20.5 22.7 19.1 92 0.9 NE 6 9 3 5 - - 0.0
22/11:40pm 20.6 22.8 19.3 92 0.8 NE 6 9 3 5 - - 0.0
22/11:30pm 20.6 23.7 19.4 93 0.8 ENE 2 6 1 3 - - 0.0
22/11:20pm 20.6 23.3 19.4 93 0.8 NE 4 6 2 3 - - 0.0
22/11:10pm 20.6 23.2 19.3 92 0.8 NE 4 7 2 4 - - 0.0
22/11:00pm 20.5 23.1 19.3 93 0.8 ENE 4 7 2 4 - - 0.0
22/10:50pm 20.5 22.7 19.2 92 0.8 E 6 7 3 4 - - 0.0
22/10:40pm 20.5 23.1 19.2 92 0.8 NE 4 6 2 3 - - 0.0
22/10:30pm 20.5 22.7 19.3 93 0.8 NE 6 7 3 4 - - 0.0
22/10:20pm 20.5 23.0 19.1 92 0.9 NE 4 6 2 3 - - 0.0
22/10:10pm 20.6 23.2 19.2 92 0.9 ENE 4 9 2 5 - - 0.0
22/10:00pm 20.6 22.8 19.3 92 0.8 ENE 6 9 3 5 - - 0.0
22/09:50pm 20.6 22.9 19.4 93 0.8 ENE 6 9 3 5 - - 0.0
22/09:40pm 20.4 23.0 19.3 93 0.7 E 4 7 2 4 - - 0.0
22/09:30pm 20.3 22.8 19.1 93 0.8 ENE 4 9 2 5 - - 0.0
22/09:20pm 20.2 23.1 19.0 93 0.8 ENE 2 6 1 3 - - 0.0
22/09:10pm 20.3 22.7 18.9 92 0.9 NE 4 7 2 4 - - 0.0
22/09:00pm 20.3 22.8 19.0 92 0.8 ENE 4 7 2 4 - - 0.0
22/08:50pm 20.3 22.8 19.0 92 0.8 NE 4 7 2 4 - - 0.0
22/08:40pm 20.4 22.9 19.1 92 0.8 ENE 4 7 2 4 - - 0.0
22/08:30pm 20.4 22.9 19.1 92 0.8 E 4 7 2 4 - - 0.0
22/08:20pm 20.4 22.9 19.1 92 0.8 E 4 6 2 3 - - 0.0
22/08:10pm 20.5 23.5 19.2 92 0.8 ENE 2 4 1 2 - - 0.0
22/08:00pm 20.6 23.2 19.3 92 0.8 E 4 7 2 4 - - 0.0
22/07:50pm 20.6 23.7 19.4 93 0.8 E 2 6 1 3 - - 0.0
22/07:40pm 20.6 23.6 19.3 92 0.8 E 2 6 1 3 - - 0.0
22/07:30pm 20.6 23.6 19.2 92 0.9 ENE 2 4 1 2 - - 0.0
22/07:20pm 20.6 23.1 19.1 91 1.0 ENE 4 6 2 3 - - 0.0
22/07:10pm 20.6 23.5 19.0 90 1.0 ENE 2 6 1 3 - - 0.0
22/07:00pm 20.7 23.5 18.8 89 1.2 NE 2 6 1 3 - - 0.0
22/06:50pm 20.7 23.4 18.6 88 1.3 NE 2 7 1 4 - - 0.0
22/06:40pm 20.8 23.1 18.6 87 1.4 ENE 4 7 2 4 - - 0.0
22/06:30pm 20.9 23.5 18.5 86 1.5 NE 2 4 1 2 - - 0.0
22/06:20pm 21.1 23.4 18.6 86 1.6 NE 4 7 2 4 - - 0.0
22/06:10pm 21.3 23.7 18.7 85 1.7 NE 4 6 2 3 - - 0.0
22/06:00pm 21.5 23.6 18.9 85 1.7 ENE 6 9 3 5 - - 0.0
22/05:50pm 21.8 24.3 19.0 84 1.8 NE 4 7 2 4 - - 0.0
22/05:40pm 22.0 24.2 19.1 83 1.9 NE 6 7 3 4 - - 0.0
22/05:30pm 22.3 24.5 19.1 82 2.1 ENE 6 7 3 4 - - 0.0
22/05:20pm 22.5 24.5 19.1 81 2.2 NE 7 9 4 5 - - 0.0
22/05:10pm 22.8 24.8 19.1 79 2.4 NE 7 11 4 6 - - 0.0
22/05:00pm 23.1 25.1 19.2 79 2.5 NNE 7 13 4 7 - - 0.0
22/04:50pm 23.3 25.5 19.2 78 2.7 NNE 6 11 3 6 - - 0.0
22/04:40pm 23.7 25.9 19.1 75 3.0 NE 6 7 3 4 - - 0.0
22/04:30pm 23.8 25.8 19.2 75 3.0 NE 7 11 4 6 - - 0.0
22/04:20pm 24.3 26.4 19.3 73 3.3 NE 7 11 4 6 - - 0.0
22/04:10pm 24.7 26.7 19.2 71 3.6 NE 7 11 4 6 - - 0.0
22/04:00pm 24.8 26.2 19.6 73 3.4 NNE 11 13 6 7 - - 0.0
22/03:50pm 25.3 27.4 19.4 70 3.9 NE 7 13 4 7 - - 0.0
22/03:40pm 25.3 27.4 19.4 70 3.9 NE 7 11 4 6 - - 0.0
22/03:30pm 25.3 27.1 19.5 70 3.8 NE 9 13 5 7 - - 0.0
22/03:20pm 25.7 27.5 19.5 68 4.1 NE 9 9 5 5 - - 0.0
22/03:10pm 25.8 28.0 19.7 69 4.0 NE 7 11 4 6 - - 0.0
22/03:00pm 25.8 27.5 19.4 67 4.2 NE 9 13 5 7 - - 0.0
22/02:50pm 26.1 28.3 19.7 68 4.2 NNE 7 11 4 6 - - 0.0
22/02:40pm 26.3 28.6 19.8 67 4.3 NE 7 11 4 6 - - 0.0
22/02:30pm 26.4 28.7 19.8 67 4.4 NE 7 9 4 5 - - 0.0
22/02:20pm 26.2 28.4 20.3 70 4.0 NE 9 15 5 8 - - 0.0
22/02:10pm 26.4 28.3 19.7 66 4.5 NE 9 13 5 7 - - 0.0
22/02:00pm 26.5 28.5 20.0 67 4.3 NNE 9 13 5 7 - - 0.0
22/01:50pm 26.6 29.0 20.0 67 4.4 NNE 7 13 4 7 - - 0.0
22/01:40pm 26.7 29.0 19.8 66 4.6 NNE 7 11 4 6 - - 0.0
22/01:30pm 26.2 28.0 19.6 67 4.4 NE 9 13 5 7 - - 0.0
22/01:20pm 26.6 28.7 20.1 67 4.3 NNE 9 11 5 6 - - 0.0
22/01:10pm 26.7 29.0 19.9 66 4.5 NNE 7 15 4 8 - - 0.0
22/01:00pm 26.8 29.0 19.7 65 4.7 NE 7 11 4 6 - - 0.0
22/12:50pm 26.8 29.0 19.6 64 4.8 NNE 7 11 4 6 - - 0.0
22/12:40pm 27.1 30.1 20.9 69 4.2 NE 6 9 3 5 - - 0.0
22/12:30pm 26.9 29.1 19.3 63 5.0 NE 6 9 3 5 - - 0.0
22/12:20pm 26.7 28.8 19.4 64 4.8 NNE 7 9 4 5 - - 0.0
22/12:10pm 26.5 28.9 20.0 67 4.3 NE 7 11 4 6 - - 0.0
22/12:00pm 26.4 28.8 19.6 66 4.5 NNE 6 9 3 5 - - 0.0
22/11:50am 26.2 28.6 19.7 67 4.3 NNE 6 9 3 5 - - 0.0
22/11:40am 25.9 28.0 19.3 67 4.4 NNE 7 11 4 6 - - 0.0
22/11:30am 26.2 28.5 19.5 66 4.4 NNE 6 9 3 5 - - 0.0
22/11:20am 26.2 28.4 19.5 66 4.4 ENE 7 9 4 5 - - 0.0
22/11:10am 26.1 28.3 19.1 65 4.6 NE 6 9 3 5 - - 0.0
22/11:00am 25.5 27.7 19.1 67 4.2 NNE 6 9 3 5 - - 0.0
22/10:50am 25.7 27.8 19.3 67 4.2 NNE 7 9 4 5 - - 0.0
22/10:40am 25.6 27.8 19.3 68 4.2 N 6 9 3 5 - - 0.0
22/10:30am 25.9 28.0 18.9 65 4.6 NE 6 7 3 4 - - 0.0
22/10:20am 25.7 27.7 18.8 65 4.5 ENE 6 9 3 5 - - 0.0
22/10:10am 25.2 27.4 19.6 71 3.7 NNE 7 11 4 6 - - 0.0
22/10:00am 25.7 27.7 18.8 65 4.5 ENE 6 9 3 5 - - 0.0
22/09:50am 25.3 27.7 18.7 67 4.3 NE 4 7 2 4 - - 0.0
22/09:40am 24.7 26.5 18.3 67 4.1 NNE 6 11 3 6 - - 0.0
22/09:30am 24.5 26.1 17.9 66 4.2 E 6 7 3 4 - - 0.0
22/09:20am 24.2 25.8 18.2 69 3.9 E 7 9 4 5 - - 0.0
22/09:10am 23.9 25.7 18.2 70 3.7 E 6 9 3 5 - - 0.0
22/09:00am 23.6 25.1 18.1 71 3.5 E 7 11 4 6 - - 0.0
22/08:50am 23.2 24.8 17.9 72 3.4 ENE 6 7 3 4 - - 0.0
22/08:40am 22.6 24.4 18.2 76 2.8 ENE 6 9 3 5 - - 0.0
22/08:30am 22.0 24.3 18.5 80 2.3 ENE 4 6 2 3 - - 0.0
22/08:20am 21.7 24.0 18.6 82 2.0 ENE 4 6 2 3 - - 0.0
22/08:10am 21.5 23.8 18.6 83 1.9 E 4 6 2 3 - - 0.0
22/08:00am 21.1 23.8 18.7 86 1.5 ENE 2 6 1 3 - - 0.0
22/07:50am 20.6 23.3 18.6 88 1.3 ENE 2 4 1 2 - - 0.0
22/07:40am 20.2 22.9 18.6 90 1.0 ESE 2 4 1 2 - - 0.0
22/07:30am 19.7 22.8 18.6 93 0.7 CALM 0 2 0 1 - - 0.0
22/07:20am 19.1 22.0 18.3 95 0.5 CALM 0 0 0 0 - - 0.0
22/07:10am 18.8 21.6 18.0 95 0.5 CALM 0 2 0 1 - - 0.0
22/07:00am 18.6 21.4 17.9 96 0.4 CALM 0 0 0 0 - - 0.0
22/06:50am 18.6 21.3 17.8 95 0.5 CALM 0 0 0 0 - - 0.0
22/06:40am 18.6 21.3 17.8 95 0.5 CALM 0 2 0 1 - - 0.0
22/06:30am 18.6 21.4 17.9 96 0.4 CALM 0 0 0 0 - - 0.0
22/06:20am 18.6 21.4 17.9 96 0.4 CALM 0 2 0 1 - - 0.0
22/06:10am 18.6 21.0 17.9 96 0.4 SE 2 2 1 1 - - 0.0
22/06:00am 18.5 20.8 17.8 96 0.4 SSE 2 4 1 2 - - 0.0
22/05:50am 18.5 21.2 17.7 95 0.5 CALM 0 0 0 0 - - 0.0
22/05:40am 18.5 21.1 17.6 94 0.6 CALM 0 2 0 1 - - 0.0
22/05:30am 18.7 21.3 17.6 93 0.7 CALM 0 2 0 1 - - 0.0
22/05:20am 19.2 21.9 17.7 91 0.9 CALM 0 2 0 1 - - 0.0
22/05:10am 19.5 22.3 17.9 90 1.0 CALM 0 4 0 2 - - 0.0
22/05:00am 19.6 21.7 18.0 90 1.0 ESE 4 7 2 4 - - 0.0
22/04:50am 19.7 21.8 18.1 90 1.0 ESE 4 7 2 4 - - 0.0
22/04:40am 19.9 22.0 18.2 90 1.1 E 4 9 2 5 - - 0.0
22/04:30am 19.9 22.5 18.3 90 1.0 ESE 2 6 1 3 - - 0.0
22/04:20am 20.0 22.2 18.4 90 1.0 E 4 7 2 4 - - 0.0
22/04:10am 20.0 22.2 18.4 90 1.0 ESE 4 6 2 3 - - 0.0
22/04:00am 20.0 22.2 18.4 90 1.0 E 4 6 2 3 - - 0.0
22/03:50am 19.9 22.1 18.4 91 1.0 E 4 6 2 3 - - 0.0
22/03:40am 20.0 21.8 18.4 90 1.0 ENE 6 9 3 5 - - 0.0
22/03:30am 20.0 22.2 18.4 90 1.0 ENE 4 7 2 4 - - 0.0
22/03:20am 20.0 22.3 18.5 91 1.0 ENE 4 7 2 4 - - 0.0
22/03:10am 20.1 22.4 18.6 91 1.0 NE 4 9 2 5 - - 0.0
22/03:00am 20.1 22.5 18.7 92 0.9 ENE 4 9 2 5 - - 0.0
22/02:50am 20.1 22.5 18.8 92 0.8 ENE 4 7 2 4 - - 0.0
22/02:40am 20.0 22.0 18.8 93 0.8 ENE 6 9 3 5 - - 0.0
22/02:30am 20.0 22.0 18.8 93 0.8 NE 6 7 3 4 - - 0.0
22/02:20am 20.0 22.0 18.7 92 0.8 ENE 6 9 3 5 - - 0.0
22/02:10am 20.0 21.8 18.7 92 0.8 ENE 7 11 4 6 - - 0.0
22/02:00am 20.0 22.0 18.7 92 0.8 ENE 6 9 3 5 - - 0.0
22/01:50am 20.0 22.4 18.7 92 0.8 NE 4 7 2 4 - - 0.0
22/01:40am 19.9 21.8 18.6 92 0.8 NE 6 9 3 5 - - 0.0
22/01:30am 19.9 21.8 18.5 92 0.9 ENE 6 9 3 5 - - 0.0
22/01:20am 20.0 21.9 18.5 91 1.0 ENE 6 9 3 5 - - 0.0
22/01:10am 20.0 22.0 18.7 92 0.8 NE 6 9 3 5 - - 0.0
22/01:00am 20.0 22.0 18.8 93 0.8 NE 6 7 3 4 - - 0.0
22/12:50am 19.9 21.7 18.8 93 0.7 NE 7 11 4 6 - - 0.0
22/12:40am 19.9 21.9 18.7 93 0.8 NE 6 9 3 5 - - 0.0
22/12:30am 19.9 22.2 18.6 92 0.8 NE 4 7 2 4 - - 0.0
22/12:20am 20.0 21.9 18.6 92 0.9 NE 6 9 3 5 - - 0.0
22/12:10am 20.0 22.0 18.7 92 0.8 NE 6 11 3 6 - - 0.0
22/12:00am 20.1 22.1 18.7 92 0.9 NE 6 11 3 6 - - 0.0
 
Date/Time
EST
Temp
°C
App
Temp
°C
Dew
Point
°C
Rel
Hum
%
Delta-T
°C
Wind Press
QNH
hPa
Press
MSL
hPa
Rain since
9am
mm
Dir  Spd
km/h
Gust
km/h
Spd
kts
Gust
kts
21/11:50pm 20.1 21.9 18.7 92 0.9 ENE 7 9 4 5 - - 0.0
21/11:40pm 20.2 22.2 18.8 92 0.9 NE 6 7 3 4 - - 0.0
21/11:30pm 20.3 22.1 18.8 91 1.0 ENE 7 11 4 6 - - 0.0
21/11:20pm 20.3 22.1 18.8 91 1.0 NE 7 11 4 6 - - 0.0
21/11:10pm 20.3 22.2 18.9 92 0.9 NE 7 11 4 6 - - 0.0
21/11:00pm 20.4 22.4 18.8 90 1.0 NE 6 9 3 5 - - 0.0
21/10:50pm 20.5 22.9 18.8 90 1.1 NE 4 7 2 4 - - 0.0
21/10:40pm 20.6 22.5 19.0 90 1.0 NE 7 9 4 5 - - 0.0
21/10:30pm 20.7 22.9 19.2 91 1.0 ENE 6 11 3 6 - - 0.0
21/10:20pm 20.7 23.0 19.4 92 0.8 NE 6 7 3 4 - - 0.0
21/10:10pm 20.7 23.4 19.4 92 0.8 NE 4 7 2 4 - - 0.0
21/10:00pm 20.7 23.0 19.4 92 0.8 NE 6 7 3 4 - - 0.0
21/09:50pm 20.7 22.8 19.4 92 0.8 NE 7 9 4 5 - - 0.0
21/09:40pm 20.6 22.8 19.2 92 0.9 NE 6 11 3 6 - - 0.0
21/09:30pm 20.6 22.8 19.2 92 0.9 NE 6 9 3 5 - - 0.0
21/09:20pm 20.7 23.0 19.4 92 0.8 NE 6 7 3 4 - - 0.0
21/09:10pm 20.7 22.8 19.4 92 0.8 NE 7 11 4 6 - - 0.0
21/09:00pm 20.7 23.0 19.5 93 0.8 NNE 6 9 3 5 - - 0.0
21/08:50pm 20.7 23.0 19.5 93 0.8 NNE 6 9 3 5 - - 0.0
21/08:40pm 20.6 22.8 19.3 92 0.8 NE 6 7 3 4 - - 0.0
21/08:30pm 20.6 23.2 19.2 92 0.9 NE 4 6 2 3 - - 0.0
21/08:20pm 20.6 22.8 19.1 91 1.0 NE 6 7 3 4 - - 0.0
21/08:10pm 20.6 22.6 19.2 92 0.9 NE 7 11 4 6 - - 0.0
21/08:00pm 20.6 23.2 19.3 92 0.8 NE 4 9 2 5 - - 0.0
21/07:50pm 20.7 22.9 19.3 92 0.9 NE 6 9 3 5 - - 0.0
21/07:40pm 20.6 22.8 19.2 92 0.9 NE 6 9 3 5 - - 0.0
21/07:30pm 20.7 23.3 19.2 91 1.0 ENE 4 7 2 4 - - 0.0
21/07:20pm 20.7 22.9 19.2 91 1.0 NE 6 9 3 5 - - 0.0
21/07:10pm 20.8 23.0 19.3 91 1.0 NE 6 9 3 5 - - 0.0
21/07:00pm 20.9 23.1 19.2 90 1.1 NE 6 9 3 5 - - 0.0
21/06:50pm 21.0 23.2 19.1 89 1.2 NE 6 9 3 5 - - 0.0
21/06:40pm 21.2 23.4 19.2 88 1.3 NE 6 11 3 6 - - 0.0
21/06:30pm 21.2 23.2 19.2 88 1.3 NE 7 13 4 7 - - 0.0
21/06:20pm 21.2 23.2 19.2 88 1.3 NE 7 11 4 6 - - 0.0

Other formats

Comma delimited format used in spreadsheet applications
http://www.bom.gov.au/fwo/IDQ60801/IDQ60801.99125.axf

JavaScript Object Notation format (JSON) in row-major order
http://www.bom.gov.au/fwo/IDQ60801/IDQ60801.99125.json

Data quality

Most of these data are generated automatically and are frequently updated. Quality checks on data are not normally performed. It is possible for incorrect values to appear. Refer to information at About Latest Weather Observations and please check the disclaimer before using these data.